Lady Maryland — WTV4008 — position and weather

sailwx.info

Track history (hours):
 
Tides and Currents Weather Stations Pressure Air Temp Water Temp Dewpoint Dewpoint Depression Visibility Wind Speed Wind Dir Waves Ship Positions

Lady Maryland

Owner: LIVING CLASSROOMS FOUNDATION, BALTIMORE, MD. More information available from US FCC via Universal Licensing System and Coast Guard Vessel Documentation Center.

Last reported at 2017-Apr-25 16:10 UTC. Time now 2017-Apr-26 11:46 UTC.
Position N 39°17' W 076°36'.

Length 32 m.

Type: Sailing vessel. MMSI: 367350650.

Date/timePositionNaut miles runAvg speedWind from/ knotsBaromVisibWave heightAir tempDewpointWater temp
2017-Apr-25 16:10N 39°17' W 076°36'2 1.7
2017-Apr-25 14:46N 39°15' W 076°33'2 3.1
2017-Apr-25 13:58N 39°17' W 076°36'0 0.0
2017-Apr-25 13:28N 39°17' W 076°36'0 0.0
2017-Apr-25 12:58N 39°17' W 076°36'1 0.0
2017-Apr-24 17:08N 39°16' W 076°35'0 3.5
2017-Apr-24 16:59N 39°17' W 076°35'1 1.0
2017-Apr-24 16:05N 39°17' W 076°37'1 2.3
2017-Apr-24 15:27N 39°16' W 076°35'1 1.4
2017-Apr-24 15:00N 39°16' W 076°35'1 1.1
2017-Apr-24 14:19N 39°16' W 076°35'1 0.9
2017-Apr-24 13:28N 39°17' W 076°36'0 0.0
2017-Apr-24 12:58N 39°17' W 076°36'1 0.0
2017-Apr-22 20:07N 39°16' W 076°34'0 0.5
2017-Apr-22 19:24N 39°16' W 076°35'0 0.1
2017-Apr-22 15:57N 39°16' W 076°35'1 1.0
2017-Apr-22 15:23N 39°16' W 076°35'1 1.7
2017-Apr-22 15:00N 39°16' W 076°35'1 0.0
2017-Apr-21 17:33N 39°17' W 076°36'1 1.1
2017-Apr-21 16:28N 39°16' W 076°35'0 0.2
2017-Apr-21 14:50N 39°16' W 076°35'1 1.7
2017-Apr-21 14:23N 39°16' W 076°35'0 0.0
2017-Apr-20 17:32N 39°16' W 076°34'4 2.2
2017-Apr-20 15:45N 39°13' W 076°31'1 2.2
2017-Apr-20 15:25N 39°14' W 076°32'1 2.1
2017-Apr-20 14:59N 39°14' W 076°32'3 0.1
2017-Apr-19 17:50N 39°16' W 076°35'3 3.0
2017-Apr-19 16:59N 39°14' W 076°32'0 0.7
2017-Apr-19 16:28N 39°14' W 076°33'2 1.3
2017-Apr-19 15:17N 39°15' W 076°34'0 1.0
2017-Apr-19 14:55N 39°16' W 076°35'1 0.1
2017-Apr-18 17:57N 39°17' W 076°36'2 0.9
2017-Apr-18 15:14N 39°15' W 076°33'  
Track history (hours):
 
Tides and Currents Weather Stations Pressure Air Temp Water Temp Dewpoint Dewpoint Depression Visibility Wind Speed Wind Dir Waves Ship Positions

Lady Maryland

Owner: LIVING CLASSROOMS FOUNDATION, BALTIMORE, MD. More information available from US FCC via Universal Licensing System and Coast Guard Vessel Documentation Center.

Last reported at 2017-Apr-25 16:10 UTC. Time now 2017-Apr-26 11:46 UTC.
Position N 39°17' W 076°36'.

Length 32 m.

Type: Sailing vessel. MMSI: 367350650.

Date/timePositionNaut miles runAvg speedWind from/ knotsBaromVisibWave heightAir tempDewpointWater temp
2017-Apr-25 16:10N 39°17' W 076°36'2 1.7
2017-Apr-25 14:46N 39°15' W 076°33'2 3.1
2017-Apr-25 13:58N 39°17' W 076°36'0 0.0
2017-Apr-25 13:28N 39°17' W 076°36'0 0.0
2017-Apr-25 12:58N 39°17' W 076°36'1 0.0
2017-Apr-24 17:08N 39°16' W 076°35'0 3.5
2017-Apr-24 16:59N 39°17' W 076°35'1 1.0
2017-Apr-24 16:05N 39°17' W 076°37'1 2.3
2017-Apr-24 15:27N 39°16' W 076°35'1 1.4
2017-Apr-24 15:00N 39°16' W 076°35'1 1.1
2017-Apr-24 14:19N 39°16' W 076°35'1 0.9
2017-Apr-24 13:28N 39°17' W 076°36'0 0.0
2017-Apr-24 12:58N 39°17' W 076°36'1 0.0
2017-Apr-22 20:07N 39°16' W 076°34'0 0.5
2017-Apr-22 19:24N 39°16' W 076°35'0 0.1
2017-Apr-22 15:57N 39°16' W 076°35'1 1.0
2017-Apr-22 15:23N 39°16' W 076°35'1 1.7
2017-Apr-22 15:00N 39°16' W 076°35'1 0.0
2017-Apr-21 17:33N 39°17' W 076°36'1 1.1
2017-Apr-21 16:28N 39°16' W 076°35'0 0.2
2017-Apr-21 14:50N 39°16' W 076°35'1 1.7
2017-Apr-21 14:23N 39°16' W 076°35'0 0.0
2017-Apr-20 17:32N 39°16' W 076°34'4 2.2
2017-Apr-20 15:45N 39°13' W 076°31'1 2.2
2017-Apr-20 15:25N 39°14' W 076°32'1 2.1
2017-Apr-20 14:59N 39°14' W 076°32'3 0.1
2017-Apr-19 17:50N 39°16' W 076°35'3 3.0
2017-Apr-19 16:59N 39°14' W 076°32'0 0.7
2017-Apr-19 16:28N 39°14' W 076°33'2 1.3
2017-Apr-19 15:17N 39°15' W 076°34'0 1.0
2017-Apr-19 14:55N 39°16' W 076°35'1 0.1
2017-Apr-18 17:57N 39°17' W 076°36'2 0.9
2017-Apr-18 15:14N 39°15' W 076°33'  

Dump ship's entire track history